KCAO/CAO METAR and TAF weather

Enter ICAO airport designator
Station Type Date Time Source
KCAO METAR 2020/11/27 13:55 UTC NOAA

KCAO 271355Z AUTO 33007KT 10SM CLR M03/M06 A3026 RMK AO2 SLP264 T10331061


Station Type Date Time Source
KCAO Decoded METAR 2020/11/27 13:55 UTC NOAA

CLAYTON MUNICIPAL AIRPARK, NM, United States (KCAO) 36-27N 103-09W 1514M
Nov 27, 2020 - 08:55 AM EST / 2020.11.27 1355 UTC
Wind: from the NNW (330 degrees) at 8 MPH (7 KT):0
Visibility: 10 mile(s):0
Sky conditions: clear
Temperature: 26.1 F (-3.3 C)
Windchill: 17 F (-8 C):1
Dew Point: 21.0 F (-6.1 C)
Relative Humidity: 80%
Pressure (altimeter): 30.26 in. Hg (1024 hPa)
ob: KCAO 271355Z AUTO 33007KT 10SM CLR M03/M06 A3026 RMK AO2 SLP264 T10331061
cycle: 14

Station Type Date Time Source
KCAO TAF UTC NOAA

Error!

Example: see airport list